Time;durP1;ratioP1;P1;durP2;ratioP2;P2;SDS_P1;SDS_P2;PMS_P1;PMS_P2;Temp;Humidity;BMP_temperature;BMP_pressure;BME280_temperature;BME280_humidity;BME280_pressure;Samples;Min_cycle;Max_cycle;Signal;HPM_P1;HPM_P2
2022/11/05 00:11:12;;;;;;;14.45;8.55;;;8.60;99.90;;;;;;5093102;28;20176;-54
2022/11/05 00:19:06;;;;;;;13.10;8.27;;;8.50;99.90;;;;;;5092817;28;20257;-55
2022/11/05 00:27:07;;;;;;;17.13;9.25;;;8.40;99.90;;;;;;5092930;28;20535;-55
2022/11/05 00:29:33;;;;;;;16.38;9.68;;;8.40;99.90;;;;;;5092431;28;20161;-55
2022/11/05 00:31:59;;;;;;;18.27;9.07;;;8.30;99.90;;;;;;5092860;28;20174;-54
2022/11/05 00:34:25;;;;;;;17.55;9.50;;;8.40;99.90;;;;;;5092384;28;20172;-55
2022/11/05 00:36:51;;;;;;;18.15;8.95;;;8.30;99.90;;;;;;5092371;28;20165;-55
2022/11/05 00:39:16;;;;;;;17.35;9.18;;;8.20;99.90;;;;;;5092367;28;20200;-52
2022/11/05 00:41:42;;;;;;;13.88;9.05;;;8.30;99.90;;;;;;5092455;28;20161;-51
2022/11/05 00:49:28;;;;;;;18.73;9.30;;;8.20;99.90;;;;;;5092292;28;20200;-52
2022/11/05 00:49:37;;;;;;;15.05;9.27;;;8.10;99.90;;;;;;5091939;28;20514;-53
2022/11/05 00:54:48;;;;;;;14.90;9.07;;;8.20;99.90;;;;;;5050961;28;20177;-53
2022/11/05 00:57:14;;;;;;;13.57;9.60;;;8.10;99.90;;;;;;5092061;28;20244;-54
2022/11/05 00:59:39;;;;;;;13.45;9.40;;;8.10;99.90;;;;;;5092197;28;20207;-54
2022/11/05 01:02:05;;;;;;;19.45;9.98;;;8.10;99.90;;;;;;5091964;28;20213;-53
2022/11/05 01:04:30;;;;;;;17.70;10.10;;;8.10;99.90;;;;;;5092063;28;20177;-53
2022/11/05 01:06:56;;;;;;;18.13;9.25;;;8.10;99.90;;;;;;5092328;28;20173;-53
2022/11/05 01:09:22;;;;;;;18.92;9.95;;;8.10;99.90;;;;;;5091880;28;20165;-53
2022/11/05 01:11:48;;;;;;;13.23;9.30;;;8.10;99.90;;;;;;5091945;28;20169;-53
2022/11/05 01:14:16;;;;;;;14.40;9.88;;;8.10;99.90;;;;;;5091692;28;20206;-53
2022/11/05 01:16:44;;;;;;;14.98;9.60;;;8.00;99.90;;;;;;5092241;28;20524;-53
2022/11/05 01:19:10;;;;;;;15.00;10.05;;;8.00;99.90;;;;;;5092091;28;20205;-54
2022/11/05 01:21:36;;;;;;;13.65;9.05;;;7.90;99.90;;;;;;5091885;28;20170;-53
2022/11/05 01:24:02;;;;;;;16.75;10.07;;;7.90;99.90;;;;;;5091865;28;20176;-54
2022/11/05 01:26:28;;;;;;;15.20;9.77;;;7.80;99.90;;;;;;5092208;28;20617;-54
2022/11/05 01:28:56;;;;;;;16.13;10.13;;;7.80;99.90;;;;;;5092010;28;20201;-54
2022/11/05 01:31:23;;;;;;;14.65;9.50;;;7.80;99.90;;;;;;5091765;28;20170;-52
2022/11/05 01:33:49;;;;;;;13.75;10.35;;;7.80;99.90;;;;;;5092038;28;20177;-52
2022/11/05 01:36:15;;;;;;;16.52;10.52;;;7.70;99.90;;;;;;5091671;28;20166;-51
2022/11/05 01:38:41;;;;;;;14.93;10.85;;;7.80;99.90;;;;;;5091850;28;20193;-52
2022/11/05 01:41:07;;;;;;;16.55;10.07;;;7.80;99.90;;;;;;5091604;28;20269;-52
2022/11/05 01:43:51;;;;;;;15.80;9.98;;;7.80;99.90;;;;;;5091666;28;20169;-52
2022/11/05 01:46:45;;;;;;;16.25;10.50;;;7.80;99.90;;;;;;5091844;28;20173;-53
2022/11/05 01:49:43;;;;;;;17.10;10.32;;;7.80;99.90;;;;;;5087482;28;20189;-52
2022/11/05 01:52:09;;;;;;;16.05;10.13;;;7.90;99.90;;;;;;5047003;28;20220;-53
2022/11/05 01:54:35;;;;;;;14.77;9.95;;;7.90;99.90;;;;;;5091661;28;20222;-52
2022/11/05 01:57:08;;;;;;;11.98;9.70;;;7.80;99.90;;;;;;5091485;28;20180;-52
2022/11/05 01:59:40;;;;;;;12.10;9.10;;;7.80;99.90;;;;;;5091399;28;20189;-52
2022/11/05 02:02:06;;;;;;;17.67;11.32;;;7.90;99.90;;;;;;5092915;28;20213;-52
2022/11/05 02:04:37;;;;;;;17.42;10.73;;;7.90;99.90;;;;;;5095314;28;20164;-52
2022/11/05 02:07:06;;;;;;;18.70;9.85;;;7.90;99.90;;;;;;5095252;28;20172;-52
2022/11/05 02:09:50;;;;;;;19.02;10.10;;;7.90;99.90;;;;;;5095232;28;20533;-52
2022/11/05 02:12:17;;;;;;;15.57;10.05;;;8.00;99.90;;;;;;5095134;28;20248;-52
2022/11/05 02:14:43;;;;;;;17.10;9.77;;;8.00;99.90;;;;;;5095102;28;20172;-51
2022/11/05 02:17:41;;;;;;;13.10;9.65;;;8.00;99.90;;;;;;5095121;28;20162;-51
2022/11/05 02:20:49;;;;;;;21.85;11.55;;;8.00;99.90;;;;;;5094949;28;20236;-51
2022/11/05 02:23:27;;;;;;;15.20;10.18;;;8.00;99.90;;;;;;5094984;28;20154;-52
2022/11/05 02:26:14;;;;;;;16.17;10.25;;;8.10;99.90;;;;;;5094850;28;20173;-51
2022/11/05 02:29:17;;;;;;;15.32;10.90;;;8.10;99.90;;;;;;5094908;28;20196;-51
2022/11/05 02:32:01;;;;;;;16.13;10.27;;;8.00;99.90;;;;;;5094815;28;20165;-51
2022/11/05 02:34:55;;;;;;;15.57;10.07;;;7.90;99.90;;;;;;5095069;28;20165;-51
2022/11/05 02:37:29;;;;;;;16.42;10.65;;;7.90;99.90;;;;;;5059872;28;20184;-51
2022/11/05 02:40:13;;;;;;;17.52;11.82;;;8.00;99.90;;;;;;5094478;28;20569;-51
2022/11/05 02:42:52;;;;;;;18.58;10.40;;;8.10;99.90;;;;;;5094554;28;20157;-51
2022/11/05 02:45:48;;;;;;;15.05;10.43;;;8.10;99.90;;;;;;5094506;28;20168;-52
2022/11/05 02:48:47;;;;;;;16.83;10.70;;;8.10;99.90;;;;;;5094427;28;20173;-51
2022/11/05 02:51:37;;;;;;;12.85;8.80;;;8.00;99.90;;;;;;5089863;28;20522;-52
2022/11/05 02:54:24;;;;;;;15.65;8.38;;;8.00;99.90;;;;;;5094302;28;20187;-52
2022/11/05 02:56:54;;;;;;;11.18;8.35;;;7.90;99.90;;;;;;5094313;28;20211;-52
2022/11/05 02:59:19;;;;;;;12.90;9.70;;;8.00;99.90;;;;;;5094187;28;21124;-52
2022/11/05 03:01:46;;;;;;;13.18;9.52;;;8.00;99.90;;;;;;5094239;28;20636;-51
2022/11/05 03:04:16;;;;;;;13.63;9.35;;;7.90;99.90;;;;;;5094399;28;20599;-51
2022/11/05 03:07:19;;;;;;;17.30;9.82;;;7.90;99.90;;;;;;5094036;28;20158;-52
2022/11/05 03:10:00;;;;;;;16.67;9.50;;;7.90;99.90;;;;;;5094251;28;20183;-52
2022/11/05 03:13:08;;;;;;;15.13;9.88;;;7.80;99.90;;;;;;5094386;28;20172;-54
2022/11/05 03:15:57;;;;;;;14.60;8.95;;;7.80;99.90;;;;;;5094010;28;20517;-54
2022/11/05 03:18:42;;;;;;;21.13;10.50;;;7.60;99.90;;;;;;5093418;28;20166;-55
2022/11/05 03:21:21;;;;;;;14.77;9.43;;;7.70;99.90;;;;;;5094121;28;20181;-54
2022/11/05 03:24:01;;;;;;;14.55;9.75;;;7.70;99.90;;;;;;5093766;28;20180;-53
2022/11/05 03:26:57;;;;;;;16.83;9.52;;;7.70;99.90;;;;;;5093848;28;20192;-55
2022/11/05 03:29:31;;;;;;;17.92;10.25;;;7.70;99.90;;;;;;5093607;28;20162;-54
2022/11/05 03:32:01;;;;;;;20.23;10.82;;;7.70;99.90;;;;;;5093923;28;20164;-55
2022/11/05 03:34:34;;;;;;;17.80;10.82;;;7.60;99.90;;;;;;5094151;28;20220;-55
2022/11/05 03:37:01;;;;;;;16.13;10.30;;;7.70;99.90;;;;;;5093517;28;20169;-54
2022/11/05 03:39:34;;;;;;;17.73;10.15;;;7.60;99.90;;;;;;5093832;28;20241;-53
2022/11/05 03:42:06;;;;;;;16.92;10.52;;;7.70;99.90;;;;;;5093601;28;20161;-54
2022/11/05 03:44:35;;;;;;;15.32;10.35;;;7.50;99.90;;;;;;5093675;28;20178;-53
2022/11/05 03:47:07;;;;;;;22.60;9.93;;;7.50;99.90;;;;;;5093324;28;20266;-53
2022/11/05 03:50:01;;;;;;;14.70;11.02;;;7.50;99.90;;;;;;5093331;28;20210;-54
2022/11/05 03:52:32;;;;;;;15.27;10.90;;;7.40;99.90;;;;;;5093559;28;20203;-53
2022/11/05 03:54:58;;;;;;;14.20;10.20;;;7.50;99.90;;;;;;5093588;28;20188;-53
2022/11/05 03:57:35;;;;;;;18.33;11.13;;;7.40;99.90;;;;;;5093089;28;20200;-53
2022/11/05 04:00:04;;;;;;;16.73;10.10;;;7.50;99.90;;;;;;5092943;28;20560;-53
2022/11/05 04:02:30;;;;;;;17.63;12.35;;;7.50;99.90;;;;;;5092937;28;20205;-53
2022/11/05 04:04:56;;;;;;;14.70;11.15;;;7.50;99.90;;;;;;5093316;28;20170;-53
2022/11/05 04:17:05;;;;;;;18.40;11.55;;;7.50;99.90;;;;;;5092805;28;20180;-52
2022/11/05 04:18:19;;;;;;;16.70;11.82;;;7.50;99.90;;;;;;5092242;28;20178;-51
2022/11/05 04:26:12;;;;;;;17.77;11.90;;;7.40;99.90;;;;;;5091792;28;20183;-51
2022/11/05 04:31:22;;;;;;;19.10;11.40;;;7.40;99.90;;;;;;5092506;28;20168;-51
2022/11/05 04:33:47;;;;;;;21.02;13.23;;;7.40;99.90;;;;;;5092443;28;20169;-51
2022/11/05 04:36:13;;;;;;;18.98;11.52;;;7.40;99.90;;;;;;5092387;28;20192;-52
2022/11/05 04:38:38;;;;;;;15.88;11.00;;;7.40;99.90;;;;;;5092233;28;20165;-51
2022/11/05 04:41:15;;;;;;;16.27;10.98;;;7.40;99.90;;;;;;5092256;28;20180;-52
2022/11/05 04:43:42;;;;;;;20.92;12.43;;;7.40;99.90;;;;;;5092603;28;20193;-52
2022/11/05 04:46:08;;;;;;;15.85;11.85;;;7.40;99.90;;;;;;5092456;28;20208;-52
2022/11/05 04:48:35;;;;;;;22.27;13.18;;;7.40;99.90;;;;;;5092169;28;20256;-52
2022/11/05 04:51:01;;;;;;;20.13;13.02;;;7.40;99.90;;;;;;5074127;28;20238;-52
2022/11/05 04:53:26;;;;;;;23.13;13.27;;;7.30;99.90;;;;;;5092736;28;20173;-53
2022/11/05 04:55:52;;;;;;;20.17;13.52;;;7.40;99.90;;;;;;5091927;28;20169;-53
2022/11/05 04:58:17;;;;;;;25.77;14.10;;;7.30;99.90;;;;;;5091815;28;20172;-52
2022/11/05 05:00:43;;;;;;;23.83;14.82;;;7.40;99.90;;;;;;5092156;28;20209;-52
2022/11/05 05:03:08;;;;;;;22.63;13.32;;;7.30;99.90;;;;;;5092037;28;20572;-52
2022/11/05 05:05:34;;;;;;;25.85;15.90;;;7.30;99.90;;;;;;5091901;28;20220;-52
2022/11/05 05:08:04;;;;;;;19.92;14.60;;;7.30;99.90;;;;;;5092067;28;20170;-52
2022/11/05 05:10:30;;;;;;;21.05;15.82;;;7.40;99.90;;;;;;5091919;28;20181;-52
2022/11/05 05:12:56;;;;;;;25.90;16.27;;;7.40;99.90;;;;;;5092155;28;20165;-53
2022/11/05 05:15:22;;;;;;;26.00;15.68;;;7.30;99.90;;;;;;5091477;28;20180;-52
2022/11/05 05:17:51;;;;;;;24.20;16.50;;;7.40;99.90;;;;;;5091744;28;20637;-52
2022/11/05 05:23:02;;;;;;;22.52;16.40;;;7.30;99.90;;;;;;5092144;28;20187;-52
2022/11/05 05:25:28;;;;;;;24.70;15.93;;;7.30;99.90;;;;;;5092130;28;20633;-52
2022/11/05 05:27:57;;;;;;;23.35;16.30;;;7.40;99.90;;;;;;5091745;28;20585;-52
2022/11/05 05:30:23;;;;;;;22.38;15.82;;;7.30;99.90;;;;;;5091801;28;20219;-53
2022/11/05 05:32:49;;;;;;;24.38;16.88;;;7.30;99.90;;;;;;5091666;28;20253;-52
2022/11/05 05:35:15;;;;;;;23.17;16.20;;;7.40;99.90;;;;;;5091682;28;20260;-53
2022/11/05 05:37:41;;;;;;;23.88;15.20;;;7.30;99.90;;;;;;5094435;28;20170;-52
2022/11/05 05:40:08;;;;;;;22.48;15.25;;;7.30;99.90;;;;;;5095863;28;20212;-53
2022/11/05 05:42:34;;;;;;;22.98;14.60;;;7.30;99.90;;;;;;5095812;28;20166;-52
2022/11/05 05:44:59;;;;;;;20.80;14.55;;;7.20;99.90;;;;;;5077458;28;20214;-52
2022/11/05 05:47:25;;;;;;;23.58;14.45;;;7.10;99.90;;;;;;5095986;28;20173;-52
2022/11/05 05:49:51;;;;;;;21.38;13.00;;;7.20;99.90;;;;;;5095625;28;20169;-53
2022/11/05 05:52:16;;;;;;;20.83;13.57;;;7.20;99.90;;;;;;5095584;28;20164;-53
2022/11/05 05:54:42;;;;;;;21.10;14.20;;;7.10;99.90;;;;;;5095463;28;20260;-52
2022/11/05 05:57:08;;;;;;;20.75;13.70;;;7.20;99.90;;;;;;5095784;28;20166;-52
2022/11/05 05:59:33;;;;;;;21.65;13.85;;;7.10;99.90;;;;;;5095397;28;20339;-52
2022/11/05 06:01:59;;;;;;;24.02;14.25;;;7.20;99.90;;;;;;5095574;28;20205;-52
2022/11/05 06:04:25;;;;;;;28.02;15.13;;;7.20;99.90;;;;;;5095726;28;20189;-52
2022/11/05 06:06:50;;;;;;;27.63;14.40;;;7.10;99.90;;;;;;5095267;28;20174;-52
2022/11/05 06:09:16;;;;;;;21.35;14.98;;;7.30;99.90;;;;;;5095218;28;20189;-52
2022/11/05 06:11:42;;;;;;;18.67;14.60;;;7.20;99.90;;;;;;5095158;28;20161;-52
2022/11/05 06:14:13;;;;;;;21.85;14.20;;;7.20;99.90;;;;;;5076966;28;20161;-51
2022/11/05 06:16:39;;;;;;;22.08;14.90;;;7.10;99.90;;;;;;5095012;28;20233;-52
2022/11/05 06:19:07;;;;;;;26.20;15.73;;;7.10;99.90;;;;;;5094853;28;20605;-52
2022/11/05 06:21:33;;;;;;;26.92;14.43;;;7.20;99.90;;;;;;5094624;28;20169;-52
2022/11/05 06:24:00;;;;;;;23.20;14.85;;;7.20;99.90;;;;;;5094807;28;20222;-53
2022/11/05 06:26:26;;;;;;;22.05;13.95;;;7.30;99.90;;;;;;5095254;28;20172;-52
2022/11/05 06:28:51;;;;;;;22.80;14.50;;;7.20;99.90;;;;;;5094721;28;20169;-52
2022/11/05 06:31:17;;;;;;;24.73;13.85;;;7.30;99.90;;;;;;5094827;28;20227;-52
2022/11/05 06:33:43;;;;;;;21.73;13.95;;;7.20;99.90;;;;;;5094686;28;20185;-50
2022/11/05 06:36:13;;;;;;;25.17;14.18;;;7.30;99.90;;;;;;5111067;28;20176;-50
2022/11/05 06:38:39;;;;;;;24.77;13.95;;;7.20;99.90;;;;;;5115106;28;20168;-51
2022/11/05 06:41:05;;;;;;;21.90;13.13;;;7.20;99.90;;;;;;5114846;28;20173;-51
2022/11/05 06:43:31;;;;;;;31.42;15.07;;;7.30;99.90;;;;;;5096963;28;20175;-51
2022/11/05 06:46:00;;;;;;;30.42;14.02;;;7.20;99.90;;;;;;5115248;28;20534;-51
2022/11/05 06:48:27;;;;;;;29.08;14.25;;;7.20;99.90;;;;;;5114171;28;20252;-51
2022/11/05 06:50:53;;;;;;;25.63;13.93;;;7.20;99.90;;;;;;5114758;28;20248;-52
2022/11/05 06:53:19;;;;;;;25.85;12.35;;;7.10;99.90;;;;;;5114751;28;20247;-52
2022/11/05 06:55:46;;;;;;;22.10;14.25;;;7.20;99.90;;;;;;5114653;28;20516;-52
2022/11/05 06:58:13;;;;;;;27.67;13.48;;;7.20;99.90;;;;;;5114531;28;20208;-52
2022/11/05 07:00:39;;;;;;;31.35;13.40;;;7.20;99.90;;;;;;5114509;28;20200;-52
2022/11/05 07:03:06;;;;;;;31.55;14.60;;;7.30;99.90;;;;;;5114431;28;20578;-52
2022/11/05 07:05:34;;;;;;;28.55;12.93;;;7.20;99.90;;;;;;5114377;28;20259;-52
2022/11/05 07:07:59;;;;;;;28.38;13.93;;;7.20;99.90;;;;;;5114174;28;20165;-52
2022/11/05 07:10:25;;;;;;;30.13;13.63;;;7.30;99.90;;;;;;5114804;28;20227;-52
2022/11/05 07:12:51;;;;;;;22.98;12.77;;;7.20;99.90;;;;;;5114014;28;20157;-52
2022/11/05 07:15:16;;;;;;;21.10;13.10;;;7.30;99.90;;;;;;5114249;28;20194;-52
2022/11/05 07:17:42;;;;;;;28.88;13.57;;;7.30;99.90;;;;;;5113885;28;20173;-53
2022/11/05 07:20:09;;;;;;;24.00;12.65;;;7.40;99.90;;;;;;5114621;28;20245;-52
2022/11/05 07:22:35;;;;;;;23.52;12.95;;;7.40;99.90;;;;;;5113985;28;20206;-52
2022/11/05 07:25:02;;;;;;;33.88;13.75;;;7.40;99.90;;;;;;5113616;28;20636;-53
2022/11/05 07:27:28;;;;;;;20.13;12.77;;;7.50;99.90;;;;;;5114119;28;20183;-52
2022/11/05 07:29:53;;;;;;;22.42;13.60;;;7.60;99.90;;;;;;5113897;28;20493;-53
2022/11/05 07:32:19;;;;;;;25.80;12.63;;;7.60;99.90;;;;;;5114015;28;20244;-52
2022/11/05 07:34:44;;;;;;;20.73;12.00;;;7.70;99.90;;;;;;5113903;28;20173;-53
2022/11/05 07:37:10;;;;;;;23.13;12.38;;;7.60;99.90;;;;;;5114030;28;20156;-52
2022/11/05 07:39:36;;;;;;;20.67;11.60;;;7.60;99.90;;;;;;5113728;28;20200;-52
2022/11/05 07:42:01;;;;;;;22.98;12.18;;;7.80;99.90;;;;;;5113770;28;20168;-53
2022/11/05 07:44:27;;;;;;;20.95;11.82;;;7.80;99.90;;;;;;5114063;28;20251;-52
2022/11/05 07:46:53;;;;;;;19.63;12.25;;;7.80;99.90;;;;;;5113797;28;20508;-53
2022/11/05 07:49:18;;;;;;;21.83;11.48;;;8.00;99.90;;;;;;5113711;28;20599;-54
2022/11/05 07:51:44;;;;;;;19.55;11.63;;;8.00;99.90;;;;;;5095357;28;20173;-53
2022/11/05 07:54:09;;;;;;;20.52;11.43;;;8.00;99.90;;;;;;5113821;28;20165;-54
2022/11/05 07:56:35;;;;;;;19.00;11.38;;;8.10;99.90;;;;;;5113619;28;20252;-53
2022/11/05 07:59:01;;;;;;;18.60;11.65;;;8.10;99.90;;;;;;5113383;28;20215;-53
2022/11/05 08:01:27;;;;;;;18.33;10.57;;;8.20;99.90;;;;;;5113722;28;20180;-53
2022/11/05 08:03:52;;;;;;;20.98;11.38;;;8.30;99.90;;;;;;5113183;28;20212;-53
2022/11/05 08:06:18;;;;;;;19.48;10.35;;;8.30;99.90;;;;;;5095011;28;20201;-53
2022/11/05 08:08:43;;;;;;;20.10;9.90;;;8.50;99.90;;;;;;5113313;28;20167;-53
2022/11/05 08:11:10;;;;;;;20.48;10.65;;;8.40;99.90;;;;;;5113308;28;20528;-53
2022/11/05 08:13:36;;;;;;;22.00;10.57;;;8.40;99.90;;;;;;5111267;28;20198;-53
2022/11/05 08:16:02;;;;;;;15.80;10.40;;;8.40;99.90;;;;;;5110855;28;20168;-55
2022/11/05 08:18:32;;;;;;;19.70;9.85;;;8.30;99.90;;;;;;5091782;28;20246;-54
2022/11/05 08:21:00;;;;;;;13.77;8.98;;;8.20;99.90;;;;;;5073482;28;20680;-49
2022/11/05 08:23:26;;;;;;;16.42;10.18;;;8.10;99.90;;;;;;5091577;28;20165;-50
2022/11/05 08:25:53;;;;;;;18.60;9.50;;;8.10;99.90;;;;;;5073185;28;20177;-52
2022/11/05 08:28:20;;;;;;;24.27;9.95;;;8.00;99.90;;;;;;5091046;28;20173;-51
2022/11/05 08:30:50;;;;;;;18.02;10.88;;;8.10;99.90;;;;;;5091348;28;20222;-51
2022/11/05 08:33:17;;;;;;;15.25;9.63;;;8.10;99.90;;;;;;5091339;28;20477;-50
2022/11/05 08:35:42;;;;;;;19.10;9.52;;;8.10;99.90;;;;;;5091123;28;20169;-53
2022/11/05 08:38:12;;;;;;;20.15;9.50;;;8.10;99.90;;;;;;5072971;28;20173;-51
2022/11/05 08:40:38;;;;;;;16.42;9.20;;;8.10;99.90;;;;;;5090755;28;20288;-53
2022/11/05 08:43:06;;;;;;;19.27;9.25;;;8.20;99.90;;;;;;5090961;28;20161;-56
2022/11/05 08:45:32;;;;;;;24.10;10.13;;;8.20;99.90;;;;;;5090864;28;20173;-51
2022/11/05 08:48:04;;;;;;;19.50;8.63;;;8.20;99.90;;;;;;5091158;28;20244;-52
2022/11/05 08:50:31;;;;;;;16.98;8.70;;;8.20;99.90;;;;;;5090726;28;20169;-53
2022/11/05 08:52:56;;;;;;;22.40;9.40;;;8.30;99.90;;;;;;5091202;28;20191;-54
2022/11/05 08:55:22;;;;;;;17.60;8.95;;;8.20;99.90;;;;;;5090767;28;20169;-54
2022/11/05 08:57:53;;;;;;;20.25;8.93;;;8.20;99.90;;;;;;5090767;28;20157;-55
2022/11/05 09:00:18;;;;;;;13.00;8.15;;;8.30;99.90;;;;;;5090560;28;20197;-52
2022/11/05 09:02:44;;;;;;;15.05;8.88;;;8.20;99.90;;;;;;5090531;28;20700;-53
2022/11/05 09:05:09;;;;;;;14.00;8.75;;;8.30;99.90;;;;;;5090605;28;20573;-51
2022/11/05 09:07:35;;;;;;;19.85;9.73;;;8.20;99.90;;;;;;5090612;28;20173;-53
2022/11/05 09:10:01;;;;;;;19.88;9.48;;;8.30;99.90;;;;;;5072479;28;20708;-51
2022/11/05 09:12:26;;;;;;;15.85;9.30;;;8.30;99.90;;;;;;5072196;28;20218;-53
2022/11/05 09:14:52;;;;;;;19.42;8.85;;;8.30;99.90;;;;;;5090559;28;20252;-52
2022/11/05 09:17:20;;;;;;;15.55;8.27;;;8.40;99.90;;;;;;5090462;28;20166;-53
2022/11/05 09:19:46;;;;;;;17.38;7.25;;;8.40;99.90;;;;;;5090427;28;20711;-51
2022/11/05 09:22:12;;;;;;;11.57;6.53;;;8.40;99.90;;;;;;5072340;28;20545;-51
2022/11/05 09:24:39;;;;;;;10.98;7.45;;;8.50;99.90;;;;;;5090295;28;20177;-52
2022/11/05 09:27:06;;;;;;;10.63;6.70;;;8.50;99.90;;;;;;5090367;28;20169;-52
2022/11/05 09:29:31;;;;;;;9.82;5.43;;;8.50;99.90;;;;;;5090527;28;20165;-51
2022/11/05 09:31:57;;;;;;;14.65;6.65;;;8.60;99.90;;;;;;5090726;28;20174;-54
2022/11/05 09:34:22;;;;;;;13.65;6.50;;;8.50;99.90;;;;;;5090568;28;20635;-54
2022/11/05 09:36:48;;;;;;;9.35;6.38;;;8.60;99.90;;;;;;5090245;28;20165;-53
2022/11/05 09:39:13;;;;;;;13.63;6.28;;;8.70;99.90;;;;;;5090214;28;20189;-51
2022/11/05 09:41:42;;;;;;;10.15;6.07;;;8.70;99.90;;;;;;5090203;28;20170;-53
2022/11/05 09:44:16;;;;;;;10.77;6.75;;;8.70;99.90;;;;;;5090255;28;20663;-52
2022/11/05 09:46:46;;;;;;;16.50;7.53;;;8.80;99.90;;;;;;5090407;28;20173;-53
2022/11/05 09:49:34;;;;;;;13.60;7.35;;;8.80;99.90;;;;;;5090164;28;20250;-51
2022/11/05 09:52:01;;;;;;;10.57;6.40;;;8.90;99.90;;;;;;5080299;28;20181;-51
2022/11/05 09:54:30;;;;;;;11.75;5.43;;;8.90;99.90;;;;;;5090360;28;20576;-52
2022/11/05 09:56:58;;;;;;;13.85;6.05;;;8.90;99.90;;;;;;5090421;28;20185;-52
2022/11/05 09:59:29;;;;;;;12.10;6.20;;;11.50;99.90;;;;;;5090274;28;20205;-52
2022/11/05 10:02:11;;;;;;;8.35;5.03;;;9.00;99.90;;;;;;5090264;28;20161;-53
2022/11/05 10:04:38;;;;;;;16.17;5.43;;;9.00;99.90;;;;;;5089935;28;20165;-51
2022/11/05 10:07:06;;;;;;;12.60;5.47;;;9.10;99.90;;;;;;5089939;28;20185;-53
2022/11/05 10:09:39;;;;;;;12.52;5.53;;;9.10;99.90;;;;;;5089936;28;20166;-52
2022/11/05 10:12:11;;;;;;;10.23;5.68;;;9.10;99.90;;;;;;5089953;28;20165;-52
2022/11/05 10:14:45;;;;;;;18.00;6.15;;;9.20;99.90;;;;;;5089929;28;20169;-53
2022/11/05 10:17:11;;;;;;;9.38;6.18;;;9.20;99.90;;;;;;5089991;28;20649;-51
2022/11/05 10:19:46;;;;;;;7.13;5.45;;;9.20;99.90;;;;;;5089790;28;20659;-53
2022/11/05 10:22:18;;;;;;;13.43;6.80;;;9.20;99.90;;;;;;5089915;28;20576;-51
2022/11/05 10:24:47;;;;;;;46.10;19.33;;;9.20;99.90;;;;;;5092248;28;20605;-52
2022/11/05 10:27:29;;;;;;;14.75;8.95;;;9.20;99.90;;;;;;5093338;28;20257;-51
2022/11/05 10:29:55;;;;;;;18.65;6.38;;;9.20;99.90;;;;;;5093876;28;20679;-51
2022/11/05 10:32:31;;;;;;;10.35;5.03;;;9.30;99.90;;;;;;5093589;28;20200;-51
2022/11/05 10:35:00;;;;;;;14.25;6.25;;;9.30;99.90;;;;;;5093842;28;20252;-51
2022/11/05 10:37:27;;;;;;;7.07;5.13;;;9.40;99.90;;;;;;5093875;28;20588;-51
2022/11/05 10:39:53;;;;;;;10.07;5.32;;;9.50;99.90;;;;;;5093403;28;20583;-51
2022/11/05 10:42:43;;;;;;;10.43;5.85;;;9.60;99.90;;;;;;5092790;28;20633;-51
2022/11/05 10:45:31;;;;;;;8.45;4.35;;;9.70;99.90;;;;;;5093091;28;20644;-51
2022/11/05 10:48:07;;;;;;;7.75;3.33;;;9.80;99.90;;;;;;5093106;28;20253;-51
2022/11/05 10:50:33;;;;;;;6.70;3.80;;;9.80;99.90;;;;;;5092854;28;20248;-51
2022/11/05 10:52:59;;;;;;;10.95;4.43;;;9.90;99.90;;;;;;5093013;28;20256;-53
2022/11/05 10:55:33;;;;;;;12.20;4.75;;;10.00;99.90;;;;;;5093119;28;20165;-51
2022/11/05 10:58:08;;;;;;;7.22;4.07;;;10.00;99.90;;;;;;5095155;28;20500;-51
2022/11/05 11:00:35;;;;;;;11.05;4.63;;;10.10;99.90;;;;;;5092366;28;20205;-51
2022/11/05 11:03:04;;;;;;;6.38;4.72;;;10.20;99.90;;;;;;5092695;28;20209;-53
2022/11/05 11:05:36;;;;;;;5.55;3.53;;;10.40;99.90;;;;;;5092697;28;20248;-52
2022/11/05 11:08:11;;;;;;;6.30;3.60;;;10.50;99.90;;;;;;5092853;28;20172;-51
2022/11/05 11:10:46;;;;;;;6.57;3.92;;;10.60;99.90;;;;;;5092303;28;20187;-52
2022/11/05 11:13:24;;;;;;;6.22;3.72;;;10.70;99.90;;;;;;5092792;28;20550;-54
2022/11/05 11:15:50;;;;;;;11.88;3.75;;;10.60;99.90;;;;;;5092471;28;20168;-53
2022/11/05 11:18:25;;;;;;;7.18;3.00;;;10.60;99.90;;;;;;5092452;28;20210;-53
2022/11/05 11:20:51;;;;;;;6.75;4.00;;;10.70;99.90;;;;;;5092381;28;20212;-52
2022/11/05 11:23:17;;;;;;;7.70;3.95;;;10.80;99.90;;;;;;5092556;28;20181;-50
2022/11/05 11:25:52;;;;;;;8.20;4.72;;;10.80;99.90;;;;;;5092491;28;20644;-51
2022/11/05 11:28:25;;;;;;;10.45;4.55;;;10.90;99.90;;;;;;5092187;28;20165;-51
2022/11/05 11:31:00;;;;;;;6.82;4.32;;;11.00;99.90;;;;;;5092461;28;20200;-51
2022/11/05 11:33:27;;;;;;;6.45;4.43;;;11.10;99.90;;;;;;5074319;28;20213;-51
2022/11/05 11:35:53;;;;;;;10.52;4.93;;;11.20;99.90;;;;;;5091901;28;20170;-50
2022/11/05 11:38:22;;;;;;;7.45;4.18;;;11.30;99.90;;;;;;5092500;28;20228;-51
2022/11/05 11:40:47;;;;;;;5.07;4.25;;;11.40;99.90;;;;;;5092086;28;20212;-53
2022/11/05 11:43:34;;;;;;;6.55;4.20;;;11.30;99.90;;;;;;5091936;28;20170;-51
2022/11/05 11:46:00;;;;;;;6.05;4.10;;;11.30;99.90;;;;;;5091690;28;20173;-51
2022/11/05 11:48:30;;;;;;;8.75;4.38;;;11.30;99.90;;;;;;5092200;28;20173;-50
2022/11/05 11:50:57;;;;;;;7.20;4.82;;;11.30;99.90;;;;;;5073946;28;20218;-51
2022/11/05 11:53:25;;;;;;;7.53;4.43;;;11.40;99.90;;;;;;5073649;28;20173;-52
2022/11/05 11:56:00;;;;;;;9.02;5.00;;;11.40;99.90;;;;;;5090597;28;20268;-47
2022/11/05 11:58:50;;;;;;;7.60;3.90;;;11.40;99.90;;;;;;5091909;28;20218;-52
2022/11/05 12:01:39;;;;;;;8.25;4.28;;;11.40;99.90;;;;;;5091187;28;20189;-55
2022/11/05 12:04:17;;;;;;;6.97;4.05;;;11.40;99.90;;;;;;5090846;28;20244;-52
2022/11/05 12:07:06;;;;;;;6.15;4.35;;;11.40;99.90;;;;;;5091433;28;20177;-52
2022/11/05 12:09:59;;;;;;;7.55;3.63;;;11.50;99.90;;;;;;5090519;28;20168;-53
2022/11/05 12:12:48;;;;;;;7.18;4.20;;;11.50;99.90;;;;;;5103117;28;20192;-52
2022/11/05 12:15:45;;;;;;;4.40;3.35;;;11.50;99.90;;;;;;5100607;28;20184;-53
2022/11/05 12:18:53;;;;;;;4.43;3.17;;;11.50;99.90;;;;;;5111024;28;20193;-51
2022/11/05 12:21:37;;;;;;;8.10;4.18;;;11.50;99.90;;;;;;5111522;28;20223;-50
2022/11/05 12:24:33;;;;;;;5.28;2.90;;;11.50;99.90;;;;;;5111657;28;20165;-57
2022/11/05 12:27:21;;;;;;;6.25;3.00;;;11.50;99.90;;;;;;5107307;28;20208;-53
2022/11/05 12:30:04;;;;;;;7.20;3.40;;;11.40;99.90;;;;;;5111468;28;20691;-56
2022/11/05 12:33:10;;;;;;;4.35;2.72;;;11.60;99.90;;;;;;5111389;28;20191;-52
2022/11/05 12:36:13;;;;;;;9.38;3.33;;;11.50;99.90;;;;;;5111391;28;20187;-50
2022/11/05 12:39:00;;;;;;;4.68;3.20;;;11.60;99.90;;;;;;5111625;28;20613;-50
2022/11/05 12:41:31;;;;;;;5.90;2.90;;;11.60;99.90;;;;;;5111549;28;20183;-53
2022/11/05 12:44:09;;;;;;;9.80;3.40;;;11.60;99.90;;;;;;5111257;28;20164;-51
2022/11/05 12:47:03;;;;;;;4.85;2.95;;;11.60;99.90;;;;;;5110507;28;20276;-52
2022/11/05 12:49:37;;;;;;;6.90;2.72;;;11.70;99.90;;;;;;5110924;28;20704;-56
2022/11/05 12:52:12;;;;;;;7.90;2.90;;;11.70;99.90;;;;;;5110821;28;20164;-54
2022/11/05 12:54:57;;;;;;;6.43;3.05;;;11.70;99.90;;;;;;5110918;28;20168;-54
2022/11/05 12:57:25;;;;;;;8.57;2.60;;;11.80;99.90;;;;;;5109439;28;20603;-51
2022/11/05 12:59:55;;;;;;;6.18;3.38;;;11.70;99.90;;;;;;5110134;28;20199;-56
2022/11/05 13:02:29;;;;;;;6.22;2.95;;;11.80;99.90;;;;;;5110835;28;20291;-51
2022/11/05 13:05:05;;;;;;;6.70;3.20;;;11.80;99.90;;;;;;5111438;28;20172;-52
2022/11/05 13:07:38;;;;;;;4.72;2.45;;;11.80;99.90;;;;;;5110885;28;20163;-50
2022/11/05 13:10:26;;;;;;;7.60;2.08;;;11.70;99.90;;;;;;5111002;28;20208;-56
2022/11/05 13:13:10;;;;;;;3.40;2.10;;;11.70;99.90;;;;;;5111024;28;20631;-54
2022/11/05 13:16:01;;;;;;;8.45;2.50;;;11.60;99.90;;;;;;5110768;28;20216;-52
2022/11/05 13:18:50;;;;;;;6.18;2.03;;;11.50;99.90;;;;;;5110682;28;20554;-51
2022/11/05 13:21:18;;;;;;;2.70;1.88;;;11.60;99.90;;;;;;5110356;28;20204;-54
2022/11/05 13:23:58;;;;;;;7.68;2.53;;;11.60;99.90;;;;;;5110787;28;20203;-54
2022/11/05 13:26:33;;;;;;;4.20;1.95;;;11.60;99.90;;;;;;5111012;28;20200;-55
2022/11/05 13:29:13;;;;;;;6.18;2.13;;;11.60;99.90;;;;;;5110546;28;20519;-49
2022/11/05 13:32:00;;;;;;;2.08;1.80;;;11.60;99.90;;;;;;5110730;28;20216;-50
2022/11/05 13:34:25;;;;;;;4.22;1.98;;;11.60;99.90;;;;;;5110769;28;20164;-52
2022/11/05 13:39:51;;;;;;;5.55;2.40;;;11.60;99.90;;;;;;5110563;28;20264;-55
2022/11/05 13:43:02;;;;;;;1.88;1.60;;;11.60;99.90;;;;;;5110441;28;20529;-51
2022/11/05 13:45:36;;;;;;;4.25;1.63;;;11.50;99.90;;;;;;5107391;28;20181;-51
2022/11/05 13:48:19;;;;;;;6.07;1.90;;;11.50;99.90;;;;;;5110571;28;20165;-52
2022/11/05 13:50:58;;;;;;;10.30;1.95;;;11.50;99.90;;;;;;5110483;28;20247;-50
2022/11/05 13:54:05;;;;;;;6.35;1.63;;;11.50;99.90;;;;;;5110782;28;20161;-51
2022/11/05 13:56:42;;;;;;;4.78;1.70;;;11.50;99.90;;;;;;5110460;28;20169;-51